• Join FlightAware (Why Join?)
  • Login
  • US Flag 
04:38AM EST


 

Airport Tracker/Info


-or-


 

Live Flight TrackerFlight Track Log ✈ PDT4314 ✈ 04-Sep-2013 ✈ KPHL - KBGM

Flight Track Log - Related Links

Times and Time Zones

All times are in EDT time to prevent confusion due to time zone crossing. See the PDT4314 flight status page for this flight to view local times or setup timezone preferences in your user account.

Time Position Orientation Groundspeed Altitude Reporting Facility
EDT Latitude Longitude Course Direction KTS MPH feet Rate Location/Type
04:28PM 39.9000 -75.2333 323° Northwest 125 144 600  Level Philadelphia TRACON
04:28PM 39.9000 -75.2667 270° West 114 131 1,600 1,200 Climbing Philadelphia TRACON
04:29PM 39.9167 -75.3000 303° West 145 167 2,600 1,020 Climbing Philadelphia TRACON
04:30PM 40.0068 -75.3568 323° Northwest  Level FlightAware Approximate
04:30PM 39.9167 -75.3500 270° West 141 162 3,700  Level Philadelphia TRACON
04:31PM 40.0527 -75.4027 323° Northwest  Level FlightAware Approximate
04:31PM 39.9139 -75.4125 267° West 151 174 4,700  Level New York Center
04:32PM 40.1025 -75.4383 303° West  Level FlightAware Approximate
04:32PM 39.9200 -75.4642 279° West 160 184 5,800  Level New York Center
04:33PM 40.1421 -75.4921 323° Northwest  Level FlightAware Approximate
04:33PM 39.9506 -75.4283 42° Northeast 172 198 7,000  Level New York Center
04:34PM 39.9714 -75.3811 60° Northeast 173 199 7,900 960 Climbing New York Center
04:35PM 40.0167 -75.3667 14° North 160 184 9,000 540 Climbing Philadelphia TRACON
04:36PM 40.0556 -75.4111 319° Northwest 197 227 9,000  Level New York Center
04:37PM 40.1014 -75.4628 319° Northwest 215 247 9,000  Level New York Center
04:38PM 40.1458 -75.5011 327° Northwest 226 260 9,000 780 Level New York Center
04:39PM 40.1922 -75.5369 329° Northwest 205 236 10,600 1,020 Climbing New York Center
04:40PM 40.2344 -75.5753 325° Northwest 185 213 11,100 180 Climbing New York Center
04:41PM 40.2653 -75.6372 303° West 195 224 11,000 -60 Descending New York Center
04:42PM 40.3067 -75.6972 312° West 214 246 11,000  Level New York Center
04:43PM 40.3500 -75.7547 315° West 219 252 11,000 60 Level New York Center
04:44PM 40.3872 -75.8119 311° West 219 252 11,200 840 Climbing New York Center
04:45PM 40.4244 -75.8694 310° West 199 229 12,700 900 Climbing New York Center
04:46PM 40.4597 -75.9211 312° West 188 216 13,100 600 Climbing New York Center
04:47PM 40.4928 -75.9753 309° West 188 216 13,900 420 Climbing New York Center
04:48PM 40.5300 -76.0300 312° West 188 216 14,000 60 Climbing New York Center
04:49PM 40.5833 -76.0450 348° North 200 230 14,100  Climbing New York Center
04:50PM 40.6500 -76.0447 360° North 225 259 14,100 -60 Level New York Center
04:51PM 40.7272 -76.0425 North 243 280 14,000 -360 Descending New York Center
04:52PM 40.7964 -76.0342 North 255 293 13,400 -540 Descending New York Center
04:53PM 40.8689 -76.0425 355° North 256 295 13,000 -240 Descending New York Center
04:54PM 40.9217 -76.0767 334° Northwest 242 278 13,000  Level New York Center
04:55PM 40.9869 -76.1092 339° North 236 272 13,000  Level New York Center
04:56PM 41.0486 -76.1278 347° North 231 266 13,100  Climbing New York Center
04:57PM 41.1181 -76.1114 10° North 226 260 13,000 -60 Descending New York Center
04:58PM 41.1764 -76.1106 North 237 273 13,000  Level New York Center
04:59PM 41.2433 -76.1047 North 237 273 13,000  Level New York Center
05:00PM 41.3169 -76.0883 North 237 273 13,000  Level New York Center
05:01PM 41.3839 -76.0825 North 237 273 13,100  Climbing New York Center
05:02PM 41.4508 -76.0769 North 237 273 13,000 -60 Descending New York Center
05:03PM 41.5094 -76.0678 North 237 273 13,000 -360 Level New York Center
05:04PM 41.5786 -76.0592 North 237 273 12,300 -1,200 Descending New York Center
05:05PM 41.6517 -76.0539 North 237 273 10,600 -1,560 Descending New York Center
05:06PM 41.7167 -76.0453 North 232 267 9,200 -1,380 Descending New York Center
05:07PM 41.7797 -76.0336 North 232 267 7,900 -1,260 Descending New York Center
05:08PM 41.8319 -76.0292 North 219 252 6,700 -1,020 Descending New York Center
05:09PM 41.8994 -76.0067 14° North 219 252 5,900 -480 Descending New York Center
05:10PM 41.9592 -75.9781 20° North 230 265 5,800 -360 Descending New York Center
05:11PM 42.0206 -75.9522 17° North 230 265 5,200 -900 Descending New York Center
05:12PM 42.0819 -75.9289 16° North 230 265 4,100 -900 Descending New York Center
05:13PM 42.1278 -75.9269 North 202 232 3,400 -780 Descending New York Center
05:14PM 42.1606 -75.9408 343° North 155 178 2,600 -720 Descending New York Center
05:15PM 42.1847 -75.9622 327° Northwest 130 150 2,000 -600 Descending New York Center